sensor_id;sensor_type;location;lat;lon;timestamp;P1;durP1;ratioP1;P2;durP2;ratioP2
583;SDS011;27024;54.068;12.116;2023-04-01T00:01:27;7.43;;;3.78;;
583;SDS011;27024;54.068;12.116;2023-04-01T00:03:54;7.93;;;3.95;;
583;SDS011;27024;54.068;12.116;2023-04-01T00:06:22;8.30;;;4.22;;
583;SDS011;27024;54.068;12.116;2023-04-01T00:08:49;10.27;;;4.05;;
583;SDS011;27024;54.068;12.116;2023-04-01T00:11:16;8.70;;;4.75;;
583;SDS011;27024;54.068;12.116;2023-04-01T00:13:46;7.72;;;4.35;;
583;SDS011;27024;54.068;12.116;2023-04-01T00:16:13;9.05;;;4.85;;
583;SDS011;27024;54.068;12.116;2023-04-01T00:18:48;6.32;;;3.22;;
583;SDS011;27024;54.068;12.116;2023-04-01T00:21:15;6.65;;;3.22;;
583;SDS011;27024;54.068;12.116;2023-04-01T00:23:42;5.97;;;3.00;;
583;SDS011;27024;54.068;12.116;2023-04-01T00:26:10;6.07;;;2.50;;
583;SDS011;27024;54.068;12.116;2023-04-01T00:28:39;7.55;;;2.33;;
583;SDS011;27024;54.068;12.116;2023-04-01T00:31:07;6.80;;;2.97;;
583;SDS011;27024;54.068;12.116;2023-04-01T00:33:36;5.72;;;2.45;;
583;SDS011;27024;54.068;12.116;2023-04-01T00:36:13;4.50;;;2.13;;
583;SDS011;27024;54.068;12.116;2023-04-01T00:38:43;5.47;;;2.40;;
583;SDS011;27024;54.068;12.116;2023-04-01T00:41:11;5.88;;;2.17;;
583;SDS011;27024;54.068;12.116;2023-04-01T00:43:41;4.93;;;2.22;;
583;SDS011;27024;54.068;12.116;2023-04-01T00:46:10;5.53;;;2.22;;
583;SDS011;27024;54.068;12.116;2023-04-01T00:48:38;6.63;;;2.33;;
583;SDS011;27024;54.068;12.116;2023-04-01T00:51:16;4.43;;;2.15;;
583;SDS011;27024;54.068;12.116;2023-04-01T00:53:47;4.80;;;1.98;;
583;SDS011;27024;54.068;12.116;2023-04-01T00:56:20;4.93;;;2.10;;
583;SDS011;27024;54.068;12.116;2023-04-01T00:58:51;5.85;;;2.25;;
583;SDS011;27024;54.068;12.116;2023-04-01T01:01:28;5.68;;;2.05;;
583;SDS011;27024;54.068;12.116;2023-04-01T01:03:56;5.32;;;2.42;;
583;SDS011;27024;54.068;12.116;2023-04-01T01:09:07;7.45;;;2.75;;
583;SDS011;27024;54.068;12.116;2023-04-01T01:11:49;5.82;;;2.50;;
583;SDS011;27024;54.068;12.116;2023-04-01T01:17:13;7.00;;;2.90;;
583;SDS011;27024;54.068;12.116;2023-04-01T01:25:40;5.07;;;2.58;;
583;SDS011;27024;54.068;12.116;2023-04-01T01:30:57;4.75;;;2.50;;
583;SDS011;27024;54.068;12.116;2023-04-01T01:36:12;5.45;;;2.40;;
583;SDS011;27024;54.068;12.116;2023-04-01T01:38:41;4.10;;;2.03;;
583;SDS011;27024;54.068;12.116;2023-04-01T01:41:08;4.47;;;2.10;;
583;SDS011;27024;54.068;12.116;2023-04-01T01:43:38;6.10;;;2.13;;
583;SDS011;27024;54.068;12.116;2023-04-01T01:46:09;4.50;;;2.28;;
583;SDS011;27024;54.068;12.116;2023-04-01T01:48:38;6.28;;;2.10;;
583;SDS011;27024;54.068;12.116;2023-04-01T01:51:08;4.28;;;2.10;;
583;SDS011;27024;54.068;12.116;2023-04-01T01:53:35;4.68;;;1.80;;
583;SDS011;27024;54.068;12.116;2023-04-01T01:56:03;4.82;;;1.90;;
583;SDS011;27024;54.068;12.116;2023-04-01T01:58:35;4.63;;;1.90;;
583;SDS011;27024;54.068;12.116;2023-04-01T02:01:08;5.38;;;1.80;;
583;SDS011;27024;54.068;12.116;2023-04-01T02:03:39;4.57;;;2.25;;
583;SDS011;27024;54.068;12.116;2023-04-01T02:06:10;6.13;;;2.20;;
583;SDS011;27024;54.068;12.116;2023-04-01T02:11:18;4.10;;;2.20;;
583;SDS011;27024;54.068;12.116;2023-04-01T02:13:51;6.28;;;2.03;;
583;SDS011;27024;54.068;12.116;2023-04-01T02:16:30;5.43;;;2.90;;
583;SDS011;27024;54.068;12.116;2023-04-01T02:19:01;5.50;;;1.63;;
583;SDS011;27024;54.068;12.116;2023-04-01T02:21:33;5.07;;;2.50;;
583;SDS011;27024;54.068;12.116;2023-04-01T02:24:04;5.30;;;2.42;;
583;SDS011;27024;54.068;12.116;2023-04-01T02:26:34;4.00;;;2.00;;
583;SDS011;27024;54.068;12.116;2023-04-01T02:29:01;8.32;;;2.60;;
583;SDS011;27024;54.068;12.116;2023-04-01T02:31:30;6.40;;;2.25;;
583;SDS011;27024;54.068;12.116;2023-04-01T02:33:58;4.95;;;2.47;;
583;SDS011;27024;54.068;12.116;2023-04-01T02:36:25;6.32;;;2.47;;
583;SDS011;27024;54.068;12.116;2023-04-01T02:38:52;4.57;;;2.58;;
583;SDS011;27024;54.068;12.116;2023-04-01T02:41:22;6.05;;;2.47;;
583;SDS011;27024;54.068;12.116;2023-04-01T02:43:48;7.50;;;2.55;;
583;SDS011;27024;54.068;12.116;2023-04-01T02:46:16;6.68;;;2.38;;
583;SDS011;27024;54.068;12.116;2023-04-01T02:48:42;7.60;;;2.92;;
583;SDS011;27024;54.068;12.116;2023-04-01T02:51:10;8.05;;;2.95;;
583;SDS011;27024;54.068;12.116;2023-04-01T02:53:36;7.80;;;3.25;;
583;SDS011;27024;54.068;12.116;2023-04-01T02:56:03;5.43;;;2.42;;
583;SDS011;27024;54.068;12.116;2023-04-01T02:58:30;7.28;;;2.55;;
583;SDS011;27024;54.068;12.116;2023-04-01T03:00:57;9.80;;;2.85;;
583;SDS011;27024;54.068;12.116;2023-04-01T03:03:24;5.30;;;2.22;;
583;SDS011;27024;54.068;12.116;2023-04-01T03:05:51;4.43;;;2.30;;
583;SDS011;27024;54.068;12.116;2023-04-01T03:08:21;6.95;;;2.40;;
583;SDS011;27024;54.068;12.116;2023-04-01T03:10:48;6.45;;;2.33;;
583;SDS011;27024;54.068;12.116;2023-04-01T03:13:15;6.35;;;2.45;;
583;SDS011;27024;54.068;12.116;2023-04-01T03:15:42;5.03;;;2.03;;
583;SDS011;27024;54.068;12.116;2023-04-01T03:18:08;6.95;;;2.25;;
583;SDS011;27024;54.068;12.116;2023-04-01T03:20:35;5.15;;;2.47;;
583;SDS011;27024;54.068;12.116;2023-04-01T03:23:02;5.70;;;2.60;;
583;SDS011;27024;54.068;12.116;2023-04-01T03:25:29;6.65;;;2.63;;
583;SDS011;27024;54.068;12.116;2023-04-01T03:27:57;5.50;;;2.88;;
583;SDS011;27024;54.068;12.116;2023-04-01T03:30:26;7.85;;;3.03;;
583;SDS011;27024;54.068;12.116;2023-04-01T03:32:53;7.22;;;2.70;;
583;SDS011;27024;54.068;12.116;2023-04-01T03:35:20;6.50;;;2.50;;
583;SDS011;27024;54.068;12.116;2023-04-01T03:37:46;6.70;;;2.15;;
583;SDS011;27024;54.068;12.116;2023-04-01T03:40:13;6.53;;;2.03;;
583;SDS011;27024;54.068;12.116;2023-04-01T03:42:40;4.68;;;2.17;;
583;SDS011;27024;54.068;12.116;2023-04-01T03:45:07;5.97;;;1.88;;
583;SDS011;27024;54.068;12.116;2023-04-01T03:47:34;5.07;;;2.25;;
583;SDS011;27024;54.068;12.116;2023-04-01T03:50:01;5.32;;;2.10;;
583;SDS011;27024;54.068;12.116;2023-04-01T03:52:28;6.18;;;2.28;;
583;SDS011;27024;54.068;12.116;2023-04-01T03:54:55;3.92;;;2.20;;
583;SDS011;27024;54.068;12.116;2023-04-01T03:57:22;4.22;;;1.73;;
583;SDS011;27024;54.068;12.116;2023-04-01T03:59:49;5.07;;;2.15;;
583;SDS011;27024;54.068;12.116;2023-04-01T04:02:15;4.95;;;1.73;;
583;SDS011;27024;54.068;12.116;2023-04-01T04:04:42;7.10;;;1.95;;
583;SDS011;27024;54.068;12.116;2023-04-01T04:07:09;7.80;;;1.60;;
583;SDS011;27024;54.068;12.116;2023-04-01T04:09:36;5.53;;;2.10;;
583;SDS011;27024;54.068;12.116;2023-04-01T04:12:03;4.25;;;2.08;;
583;SDS011;27024;54.068;12.116;2023-04-01T04:14:31;4.78;;;1.52;;
583;SDS011;27024;54.068;12.116;2023-04-01T04:16:58;5.60;;;1.83;;
583;SDS011;27024;54.068;12.116;2023-04-01T04:19:25;4.38;;;1.63;;
583;SDS011;27024;54.068;12.116;2023-04-01T04:21:52;5.93;;;1.88;;
583;SDS011;27024;54.068;12.116;2023-04-01T04:24:18;3.80;;;1.50;;
583;SDS011;27024;54.068;12.116;2023-04-01T04:26:45;5.20;;;1.95;;
583;SDS011;27024;54.068;12.116;2023-04-01T04:29:12;5.55;;;1.60;;
583;SDS011;27024;54.068;12.116;2023-04-01T04:31:39;6.65;;;1.98;;
583;SDS011;27024;54.068;12.116;2023-04-01T04:34:06;5.85;;;2.00;;
583;SDS011;27024;54.068;12.116;2023-04-01T04:36:32;3.10;;;1.50;;
583;SDS011;27024;54.068;12.116;2023-04-01T04:38:59;3.60;;;1.08;;
583;SDS011;27024;54.068;12.116;2023-04-01T04:41:28;3.22;;;1.35;;
583;SDS011;27024;54.068;12.116;2023-04-01T04:43:55;3.58;;;1.50;;
583;SDS011;27024;54.068;12.116;2023-04-01T04:46:23;4.60;;;2.08;;
583;SDS011;27024;54.068;12.116;2023-04-01T04:48:50;4.85;;;1.65;;
583;SDS011;27024;54.068;12.116;2023-04-01T04:51:18;3.05;;;1.85;;
583;SDS011;27024;54.068;12.116;2023-04-01T04:53:45;5.65;;;1.83;;
583;SDS011;27024;54.068;12.116;2023-04-01T04:56:12;4.60;;;1.98;;
583;SDS011;27024;54.068;12.116;2023-04-01T04:58:43;3.15;;;1.52;;
583;SDS011;27024;54.068;12.116;2023-04-01T05:01:12;5.05;;;1.40;;
583;SDS011;27024;54.068;12.116;2023-04-01T05:03:41;4.95;;;1.50;;
583;SDS011;27024;54.068;12.116;2023-04-01T05:06:08;3.20;;;1.20;;
583;SDS011;27024;54.068;12.116;2023-04-01T05:08:37;3.83;;;1.67;;
583;SDS011;27024;54.068;12.116;2023-04-01T05:11:09;4.45;;;1.55;;
583;SDS011;27024;54.068;12.116;2023-04-01T05:13:41;4.20;;;1.30;;
583;SDS011;27024;54.068;12.116;2023-04-01T05:16:09;4.93;;;1.45;;
583;SDS011;27024;54.068;12.116;2023-04-01T05:18:38;4.18;;;1.83;;
583;SDS011;27024;54.068;12.116;2023-04-01T05:21:06;4.85;;;1.58;;
583;SDS011;27024;54.068;12.116;2023-04-01T05:23:35;3.35;;;1.35;;
583;SDS011;27024;54.068;12.116;2023-04-01T05:26:03;3.00;;;1.25;;
583;SDS011;27024;54.068;12.116;2023-04-01T05:28:31;3.00;;;1.45;;
583;SDS011;27024;54.068;12.116;2023-04-01T05:30:59;4.85;;;1.85;;
583;SDS011;27024;54.068;12.116;2023-04-01T05:33:27;5.00;;;1.73;;
583;SDS011;27024;54.068;12.116;2023-04-01T05:35:56;4.63;;;1.80;;
583;SDS011;27024;54.068;12.116;2023-04-01T05:38:23;3.97;;;1.70;;
583;SDS011;27024;54.068;12.116;2023-04-01T05:40:49;3.72;;;1.55;;
583;SDS011;27024;54.068;12.116;2023-04-01T05:43:16;3.97;;;1.90;;
583;SDS011;27024;54.068;12.116;2023-04-01T05:45:43;3.92;;;1.60;;
583;SDS011;27024;54.068;12.116;2023-04-01T05:48:10;4.78;;;2.03;;
583;SDS011;27024;54.068;12.116;2023-04-01T05:50:37;4.57;;;1.70;;
583;SDS011;27024;54.068;12.116;2023-04-01T05:53:06;5.97;;;2.10;;
583;SDS011;27024;54.068;12.116;2023-04-01T05:55:34;5.57;;;2.05;;
583;SDS011;27024;54.068;12.116;2023-04-01T05:58:02;6.57;;;2.28;;
583;SDS011;27024;54.068;12.116;2023-04-01T06:00:29;5.82;;;2.13;;
583;SDS011;27024;54.068;12.116;2023-04-01T06:02:58;5.90;;;2.45;;
583;SDS011;27024;54.068;12.116;2023-04-01T06:05:38;4.82;;;2.20;;
583;SDS011;27024;54.068;12.116;2023-04-01T06:08:13;3.63;;;2.10;;
583;SDS011;27024;54.068;12.116;2023-04-01T06:16:04;4.30;;;1.83;;
583;SDS011;27024;54.068;12.116;2023-04-01T06:18:49;4.32;;;1.58;;
583;SDS011;27024;54.068;12.116;2023-04-01T06:21:37;4.82;;;1.92;;
583;SDS011;27024;54.068;12.116;2023-04-01T06:29:54;5.35;;;1.63;;
583;SDS011;27024;54.068;12.116;2023-04-01T06:35:31;4.90;;;1.60;;
583;SDS011;27024;54.068;12.116;2023-04-01T06:41:35;5.35;;;1.80;;
583;SDS011;27024;54.068;12.116;2023-04-01T06:44:31;4.15;;;1.80;;
583;SDS011;27024;54.068;12.116;2023-04-01T06:57:48;5.75;;;1.98;;
583;SDS011;27024;54.068;12.116;2023-04-01T07:00:38;5.80;;;1.80;;
583;SDS011;27024;54.068;12.116;2023-04-01T07:03:23;5.28;;;2.05;;
583;SDS011;27024;54.068;12.116;2023-04-01T07:06:02;5.85;;;2.42;;
583;SDS011;27024;54.068;12.116;2023-04-01T07:08:33;5.90;;;1.88;;
583;SDS011;27024;54.068;12.116;2023-04-01T07:11:05;6.03;;;2.13;;
583;SDS011;27024;54.068;12.116;2023-04-01T07:16:05;7.30;;;2.38;;
583;SDS011;27024;54.068;12.116;2023-04-01T07:18:42;5.40;;;1.98;;
583;SDS011;27024;54.068;12.116;2023-04-01T07:21:20;6.80;;;2.00;;
583;SDS011;27024;54.068;12.116;2023-04-01T07:24:16;3.97;;;1.92;;
583;SDS011;27024;54.068;12.116;2023-04-01T07:26:49;4.70;;;2.00;;
583;SDS011;27024;54.068;12.116;2023-04-01T07:40:39;7.97;;;2.92;;
583;SDS011;27024;54.068;12.116;2023-04-01T07:45:52;7.97;;;3.30;;
583;SDS011;27024;54.068;12.116;2023-04-01T07:48:32;7.68;;;4.05;;
583;SDS011;27024;54.068;12.116;2023-04-01T07:51:17;7.97;;;3.85;;
583;SDS011;27024;54.068;12.116;2023-04-01T07:56:40;7.65;;;3.95;;
583;SDS011;27024;54.068;12.116;2023-04-01T07:59:33;8.55;;;4.45;;
583;SDS011;27024;54.068;12.116;2023-04-01T08:02:25;10.98;;;4.82;;
583;SDS011;27024;54.068;12.116;2023-04-01T08:16:14;10.95;;;5.93;;
583;SDS011;27024;54.068;12.116;2023-04-01T08:19:18;12.85;;;5.68;;
583;SDS011;27024;54.068;12.116;2023-04-01T08:21:57;10.68;;;5.35;;
583;SDS011;27024;54.068;12.116;2023-04-01T08:24:38;12.77;;;5.18;;
583;SDS011;27024;54.068;12.116;2023-04-01T08:27:18;9.80;;;5.30;;
583;SDS011;27024;54.068;12.116;2023-04-01T08:29:54;10.30;;;4.57;;
583;SDS011;27024;54.068;12.116;2023-04-01T08:32:26;8.02;;;3.92;;
583;SDS011;27024;54.068;12.116;2023-04-01T08:37:46;12.82;;;4.95;;
583;SDS011;27024;54.068;12.116;2023-04-01T08:51:48;10.23;;;4.45;;
583;SDS011;27024;54.068;12.116;2023-04-01T09:01:04;11.52;;;5.03;;
583;SDS011;27024;54.068;12.116;2023-04-01T09:04:03;10.05;;;4.53;;
583;SDS011;27024;54.068;12.116;2023-04-01T09:15:48;9.38;;;4.07;;
583;SDS011;27024;54.068;12.116;2023-04-01T09:18:31;11.15;;;5.32;;
583;SDS011;27024;54.068;12.116;2023-04-01T09:24:07;11.38;;;4.60;;
583;SDS011;27024;54.068;12.116;2023-04-01T09:27:02;10.95;;;4.53;;
583;SDS011;27024;54.068;12.116;2023-04-01T09:29:34;8.55;;;4.53;;
583;SDS011;27024;54.068;12.116;2023-04-01T09:46:33;10.77;;;4.05;;
583;SDS011;27024;54.068;12.116;2023-04-01T09:52:20;10.18;;;3.50;;
583;SDS011;27024;54.068;12.116;2023-04-01T09:58:12;9.38;;;3.97;;
583;SDS011;27024;54.068;12.116;2023-04-01T10:15:09;10.85;;;3.22;;
583;SDS011;27024;54.068;12.116;2023-04-01T10:23:34;8.98;;;3.30;;
583;SDS011;27024;54.068;12.116;2023-04-01T10:54:51;11.85;;;4.63;;
583;SDS011;27024;54.068;12.116;2023-04-01T11:02:36;12.27;;;3.90;;
583;SDS011;27024;54.068;12.116;2023-04-01T11:05:23;7.95;;;3.17;;
583;SDS011;27024;54.068;12.116;2023-04-01T11:10:57;8.73;;;3.45;;
583;SDS011;27024;54.068;12.116;2023-04-01T11:19:38;8.40;;;3.55;;
583;SDS011;27024;54.068;12.116;2023-04-01T11:25:16;10.20;;;3.10;;
583;SDS011;27024;54.068;12.116;2023-04-01T11:30:22;11.35;;;3.22;;
583;SDS011;27024;54.068;12.116;2023-04-01T11:33:36;8.57;;;3.17;;
583;SDS011;27024;54.068;12.116;2023-04-01T11:42:03;9.48;;;3.67;;
583;SDS011;27024;54.068;12.116;2023-04-01T11:45:07;6.70;;;3.30;;
583;SDS011;27024;54.068;12.116;2023-04-01T11:55:50;10.20;;;3.80;;
583;SDS011;27024;54.068;12.116;2023-04-01T12:13:10;8.30;;;3.38;;
583;SDS011;27024;54.068;12.116;2023-04-01T12:21:35;6.72;;;3.00;;
583;SDS011;27024;54.068;12.116;2023-04-01T12:49:21;7.13;;;2.70;;
583;SDS011;27024;54.068;12.116;2023-04-01T12:52:12;10.57;;;4.00;;
583;SDS011;27024;54.068;12.116;2023-04-01T12:58:02;9.27;;;3.55;;
583;SDS011;27024;54.068;12.116;2023-04-01T13:01:34;8.18;;;2.60;;
583;SDS011;27024;54.068;12.116;2023-04-01T13:09:53;7.10;;;2.83;;
583;SDS011;27024;54.068;12.116;2023-04-01T13:20:54;10.43;;;2.75;;
583;SDS011;27024;54.068;12.116;2023-04-01T13:26:56;6.18;;;1.95;;
583;SDS011;27024;54.068;12.116;2023-04-01T13:29:16;5.80;;;1.95;;
583;SDS011;27024;54.068;12.116;2023-04-01T13:36:53;7.60;;;2.30;;
583;SDS011;27024;54.068;12.116;2023-04-01T13:39:35;6.55;;;2.63;;
583;SDS011;27024;54.068;12.116;2023-04-01T14:08:20;4.57;;;2.20;;
583;SDS011;27024;54.068;12.116;2023-04-01T14:36:00;6.60;;;1.75;;
583;SDS011;27024;54.068;12.116;2023-04-01T14:47:02;7.82;;;2.53;;
583;SDS011;27024;54.068;12.116;2023-04-01T14:49:42;5.20;;;1.73;;
583;SDS011;27024;54.068;12.116;2023-04-01T14:54:48;7.25;;;1.30;;
583;SDS011;27024;54.068;12.116;2023-04-01T15:10:34;4.32;;;2.03;;
583;SDS011;27024;54.068;12.116;2023-04-01T15:13:15;4.13;;;1.27;;
583;SDS011;27024;54.068;12.116;2023-04-01T15:21:42;6.50;;;1.77;;
583;SDS011;27024;54.068;12.116;2023-04-01T15:24:16;5.15;;;1.73;;
583;SDS011;27024;54.068;12.116;2023-04-01T15:27:29;6.88;;;1.80;;
583;SDS011;27024;54.068;12.116;2023-04-01T15:30:15;4.93;;;1.70;;
583;SDS011;27024;54.068;12.116;2023-04-01T15:41:09;4.03;;;1.83;;
583;SDS011;27024;54.068;12.116;2023-04-01T15:43:47;8.80;;;1.88;;
583;SDS011;27024;54.068;12.116;2023-04-01T15:46:36;5.72;;;1.60;;
583;SDS011;27024;54.068;12.116;2023-04-01T15:49:20;8.18;;;2.33;;
583;SDS011;27024;54.068;12.116;2023-04-01T15:54:50;4.38;;;1.52;;
583;SDS011;27024;54.068;12.116;2023-04-01T16:00:25;4.45;;;1.52;;
583;SDS011;27024;54.068;12.116;2023-04-01T16:05:54;5.78;;;1.73;;
583;SDS011;27024;54.068;12.116;2023-04-01T16:17:11;6.25;;;1.70;;
583;SDS011;27024;54.068;12.116;2023-04-01T16:22:40;5.07;;;1.40;;
583;SDS011;27024;54.068;12.116;2023-04-01T16:25:26;3.55;;;1.48;;
583;SDS011;27024;54.068;12.116;2023-04-01T16:30:46;3.72;;;1.58;;
583;SDS011;27024;54.068;12.116;2023-04-01T16:33:22;4.03;;;2.13;;
583;SDS011;27024;54.068;12.116;2023-04-01T16:36:09;5.38;;;1.48;;
583;SDS011;27024;54.068;12.116;2023-04-01T16:41:07;5.53;;;1.83;;
583;SDS011;27024;54.068;12.116;2023-04-01T16:46:32;6.68;;;1.50;;
583;SDS011;27024;54.068;12.116;2023-04-01T16:51:41;5.22;;;1.50;;
583;SDS011;27024;54.068;12.116;2023-04-01T17:02:16;4.85;;;1.17;;
583;SDS011;27024;54.068;12.116;2023-04-01T17:04:47;5.72;;;1.27;;
583;SDS011;27024;54.068;12.116;2023-04-01T17:32:09;7.32;;;1.50;;
583;SDS011;27024;54.068;12.116;2023-04-01T17:43:44;4.57;;;1.33;;
583;SDS011;27024;54.068;12.116;2023-04-01T17:46:31;5.60;;;1.30;;
583;SDS011;27024;54.068;12.116;2023-04-01T17:54:55;5.47;;;1.88;;
583;SDS011;27024;54.068;12.116;2023-04-01T18:15:35;4.53;;;1.15;;
583;SDS011;27024;54.068;12.116;2023-04-01T18:18:20;3.20;;;0.85;;
583;SDS011;27024;54.068;12.116;2023-04-01T18:26:28;4.70;;;0.98;;
583;SDS011;27024;54.068;12.116;2023-04-01T18:29:03;3.92;;;0.63;;
583;SDS011;27024;54.068;12.116;2023-04-01T18:31:41;5.80;;;1.20;;
583;SDS011;27024;54.068;12.116;2023-04-01T18:34:17;5.80;;;1.40;;
583;SDS011;27024;54.068;12.116;2023-04-01T18:36:58;4.15;;;0.60;;
583;SDS011;27024;54.068;12.116;2023-04-01T18:42:14;4.72;;;0.82;;
583;SDS011;27024;54.068;12.116;2023-04-01T18:44:50;1.60;;;0.65;;
583;SDS011;27024;54.068;12.116;2023-04-01T18:47:24;3.50;;;0.98;;
583;SDS011;27024;54.068;12.116;2023-04-01T18:52:45;5.60;;;1.15;;
583;SDS011;27024;54.068;12.116;2023-04-01T18:58:12;4.85;;;0.90;;
583;SDS011;27024;54.068;12.116;2023-04-01T19:00:55;5.13;;;1.13;;
583;SDS011;27024;54.068;12.116;2023-04-01T19:09:17;2.13;;;0.73;;
583;SDS011;27024;54.068;12.116;2023-04-01T19:20:04;3.90;;;0.90;;
583;SDS011;27024;54.068;12.116;2023-04-01T19:40:00;7.30;;;0.80;;
583;SDS011;27024;54.068;12.116;2023-04-01T19:47:36;5.97;;;1.00;;
583;SDS011;27024;54.068;12.116;2023-04-01T19:52:53;7.07;;;0.70;;
583;SDS011;27024;54.068;12.116;2023-04-01T19:55:39;3.75;;;0.82;;
583;SDS011;27024;54.068;12.116;2023-04-01T20:01:25;4.63;;;0.70;;
583;SDS011;27024;54.068;12.116;2023-04-01T20:04:12;4.78;;;1.25;;
583;SDS011;27024;54.068;12.116;2023-04-01T20:09:57;4.57;;;0.82;;
583;SDS011;27024;54.068;12.116;2023-04-01T20:15:33;2.08;;;0.40;;
583;SDS011;27024;54.068;12.116;2023-04-01T20:18:18;4.30;;;0.50;;
583;SDS011;27024;54.068;12.116;2023-04-01T20:20:55;4.32;;;0.90;;
583;SDS011;27024;54.068;12.116;2023-04-01T20:26:04;4.38;;;0.50;;
583;SDS011;27024;54.068;12.116;2023-04-01T20:28:47;4.63;;;1.00;;
583;SDS011;27024;54.068;12.116;2023-04-01T20:37:35;3.88;;;0.50;;
583;SDS011;27024;54.068;12.116;2023-04-01T20:45:32;3.60;;;0.73;;
583;SDS011;27024;54.068;12.116;2023-04-01T20:48:11;3.53;;;0.95;;
583;SDS011;27024;54.068;12.116;2023-04-01T21:01:47;5.20;;;0.93;;
583;SDS011;27024;54.068;12.116;2023-04-01T21:04:43;4.32;;;0.70;;
583;SDS011;27024;54.068;12.116;2023-04-01T21:07:34;5.25;;;0.80;;
583;SDS011;27024;54.068;12.116;2023-04-01T21:17:58;4.00;;;0.70;;
583;SDS011;27024;54.068;12.116;2023-04-01T21:26:33;5.57;;;1.30;;
583;SDS011;27024;54.068;12.116;2023-04-01T21:29:39;6.75;;;0.90;;
583;SDS011;27024;54.068;12.116;2023-04-01T21:35:06;2.10;;;0.55;;
583;SDS011;27024;54.068;12.116;2023-04-01T21:37:44;3.53;;;0.50;;
583;SDS011;27024;54.068;12.116;2023-04-01T21:40:22;7.43;;;0.75;;
583;SDS011;27024;54.068;12.116;2023-04-01T21:45:37;4.43;;;0.50;;
583;SDS011;27024;54.068;12.116;2023-04-01T21:54:15;5.28;;;0.82;;
583;SDS011;27024;54.068;12.116;2023-04-01T22:00:08;6.72;;;0.90;;
583;SDS011;27024;54.068;12.116;2023-04-01T22:05:28;5.32;;;1.02;;
583;SDS011;27024;54.068;12.116;2023-04-01T22:11:09;6.28;;;0.93;;
583;SDS011;27024;54.068;12.116;2023-04-01T22:13:55;4.60;;;0.95;;
583;SDS011;27024;54.068;12.116;2023-04-01T22:16:35;6.93;;;0.93;;
583;SDS011;27024;54.068;12.116;2023-04-01T22:29:46;5.40;;;1.05;;
583;SDS011;27024;54.068;12.116;2023-04-01T22:32:16;4.30;;;0.95;;
583;SDS011;27024;54.068;12.116;2023-04-01T22:40:23;3.00;;;0.75;;
583;SDS011;27024;54.068;12.116;2023-04-01T22:43:16;7.03;;;0.95;;
583;SDS011;27024;54.068;12.116;2023-04-01T22:49:05;6.32;;;0.73;;
583;SDS011;27024;54.068;12.116;2023-04-01T22:51:38;4.60;;;0.60;;
583;SDS011;27024;54.068;12.116;2023-04-01T22:54:37;3.42;;;0.77;;
583;SDS011;27024;54.068;12.116;2023-04-01T22:59:59;4.97;;;1.08;;
583;SDS011;27024;54.068;12.116;2023-04-01T23:02:40;3.92;;;1.02;;
583;SDS011;27024;54.068;12.116;2023-04-01T23:05:14;3.95;;;0.63;;
583;SDS011;27024;54.068;12.116;2023-04-01T23:10:49;3.70;;;0.77;;
583;SDS011;27024;54.068;12.116;2023-04-01T23:16:42;8.27;;;1.30;;
583;SDS011;27024;54.068;12.116;2023-04-01T23:21:44;5.28;;;0.63;;
583;SDS011;27024;54.068;12.116;2023-04-01T23:24:24;3.90;;;0.60;;
583;SDS011;27024;54.068;12.116;2023-04-01T23:29:27;3.03;;;0.47;;
583;SDS011;27024;54.068;12.116;2023-04-01T23:32:01;4.97;;;1.05;;
583;SDS011;27024;54.068;12.116;2023-04-01T23:34:39;4.15;;;0.77;;
583;SDS011;27024;54.068;12.116;2023-04-01T23:37:12;5.43;;;0.60;;
583;SDS011;27024;54.068;12.116;2023-04-01T23:39:44;4.75;;;0.60;;
583;SDS011;27024;54.068;12.116;2023-04-01T23:42:21;4.90;;;0.68;;
583;SDS011;27024;54.068;12.116;2023-04-01T23:44:57;3.38;;;0.52;;
583;SDS011;27024;54.068;12.116;2023-04-01T23:47:31;2.60;;;0.50;;
583;SDS011;27024;54.068;12.116;2023-04-01T23:50:01;4.72;;;0.50;;
583;SDS011;27024;54.068;12.116;2023-04-01T23:52:38;5.82;;;0.80;;
583;SDS011;27024;54.068;12.116;2023-04-01T23:55:13;2.10;;;0.43;;
